Terminal Aerodrome Forecast
Issued by NWS Sterling, VA

Current Version | Previous Version | Graphics & Text | Print | Product List | Glossary On
Versions: 1 2 3 4 5 6 7 8 9 10 11 12 13 14 15 16 17 18 19 20 21 22 23 24
000
FTUS41 KLWX 171500 AAA
TAFIAD
TAF AMD
KIAD 171500Z 1715/1818 VRB03KT P6SM FEW015 SCT100
     FM171600 23010KT P6SM SCT040 BKN100
     FM171800 26006KT 6SM -SHRA BKN040
     FM172200 31005KT P6SM BKN040
     FM180100 31004KT P6SM SCT040
     FM180600 32004KT P6SM FEW250=

USA.gov is the U.S. government's official web portal to all federal, state and local government web resources and services.